createdAt,value
2017-10-24T00:00:26.375Z,97.26
2017-10-24T00:02:54.825Z,97.10
2017-10-24T00:05:23.406Z,97.42
2017-10-24T00:07:51.850Z,97.24
2017-10-24T00:10:21.090Z,97.33
2017-10-24T00:12:49.528Z,97.01
2017-10-24T00:15:18.772Z,97.13
2017-10-24T00:17:47.219Z,97.60
2017-10-24T00:20:16.416Z,96.98
2017-10-24T00:22:45.750Z,97.37
2017-10-24T00:25:14.199Z,96.95
2017-10-24T00:27:43.431Z,96.82
2017-10-24T00:30:11.886Z,96.73
2017-10-24T00:32:40.349Z,96.64
2017-10-24T00:35:09.561Z,96.95
2017-10-24T00:37:38.790Z,97.27
2017-10-24T00:40:07.242Z,97.68
2017-10-24T00:42:36.477Z,97.92
2017-10-24T00:45:04.925Z,98.36
2017-10-24T00:47:34.252Z,98.22
2017-10-24T00:50:02.698Z,98.13
2017-10-24T00:52:31.901Z,98.17
2017-10-24T00:55:01.129Z,98.02
2017-10-24T00:57:29.622Z,98.33
2017-10-24T00:59:58.081Z,98.34
2017-10-24T01:02:26.518Z,98.42
2017-10-24T01:04:54.981Z,98.20
2017-10-24T01:07:23.425Z,98.42
2017-10-24T01:09:51.922Z,98.34
2017-10-24T01:12:20.405Z,98.47
2017-10-24T01:14:48.877Z,98.01
2017-10-24T01:17:17.313Z,98.22
2017-10-24T01:19:45.882Z,97.84
2017-10-24T01:22:14.328Z,97.88
2017-10-24T01:24:42.774Z,97.92
2017-10-24T01:27:12.001Z,97.65
2017-10-24T01:29:40.450Z,97.66
2017-10-24T01:32:09.681Z,97.79
2017-10-24T01:34:38.126Z,97.85
2017-10-24T01:37:06.589Z,97.70
2017-10-24T01:39:35.050Z,98.01
2017-10-24T01:42:03.632Z,97.58
2017-10-24T01:44:32.074Z,97.54
2017-10-24T01:47:01.307Z,97.68
2017-10-24T01:49:29.758Z,97.96
2017-10-24T01:51:59.009Z,98.01
2017-10-24T01:54:27.454Z,97.55
2017-10-24T01:56:55.888Z,97.91
2017-10-24T01:59:24.358Z,97.66
2017-10-24T02:01:52.815Z,97.94
2017-10-24T02:04:21.277Z,97.90
2017-10-24T02:06:49.712Z,97.83
2017-10-24T02:09:18.177Z,97.89
2017-10-24T02:11:46.649Z,98.08
2017-10-24T02:14:15.109Z,98.38
2017-10-24T02:16:43.610Z,98.11
2017-10-24T02:19:12.074Z,97.94
2017-10-24T02:21:40.519Z,98.07
2017-10-24T02:24:09.752Z,98.07
2017-10-24T02:26:38.198Z,98.16
2017-10-24T02:29:06.669Z,98.34
2017-10-24T02:31:35.111Z,98.40
2017-10-24T02:34:03.558Z,98.33
2017-10-24T02:36:32.790Z,98.15
2017-10-24T02:39:01.281Z,98.22
2017-10-24T02:41:29.785Z,98.49
2017-10-24T02:43:58.224Z,98.32
2017-10-24T02:46:26.681Z,98.45
2017-10-24T02:48:55.881Z,98.46
2017-10-24T02:51:25.109Z,98.62
2017-10-24T02:53:53.609Z,98.80
2017-10-24T02:56:22.101Z,98.75
2017-10-24T02:58:50.559Z,98.91
2017-10-24T03:01:19.007Z,98.82
2017-10-24T03:03:48.232Z,98.66
2017-10-24T03:06:16.677Z,98.67
2017-10-24T03:08:45.137Z,98.41
2017-10-24T03:11:13.589Z,98.69
2017-10-24T03:13:42.053Z,98.61
2017-10-24T03:16:10.498Z,98.59
2017-10-24T03:18:38.971Z,98.72
2017-10-24T03:21:07.421Z,98.07
2017-10-24T03:23:35.882Z,98.27
2017-10-24T03:26:04.316Z,98.54
2017-10-24T03:28:32.781Z,98.52
2017-10-24T03:31:01.231Z,98.63
2017-10-24T03:33:29.668Z,98.59
2017-10-24T03:35:58.137Z,98.26
2017-10-24T03:38:26.688Z,98.31
2017-10-24T03:40:55.157Z,98.07
2017-10-24T03:43:23.602Z,98.30
2017-10-24T03:45:52.129Z,98.03
2017-10-24T03:48:20.605Z,98.14
2017-10-24T03:50:49.082Z,98.03
2017-10-24T03:53:17.523Z,98.27
2017-10-24T03:55:45.994Z,97.91
2017-10-24T03:58:14.448Z,97.97
2017-10-24T04:00:42.936Z,97.49
2017-10-24T04:03:11.385Z,97.68
2017-10-24T04:05:39.829Z,97.95
2017-10-24T04:08:08.305Z,97.77
2017-10-24T04:10:36.849Z,97.77
2017-10-24T04:13:05.330Z,97.43
2017-10-24T04:15:33.770Z,97.84
2017-10-24T04:18:03.000Z,97.84
2017-10-24T04:20:31.449Z,97.69
2017-10-24T04:22:59.910Z,97.58
2017-10-24T04:25:28.352Z,97.52
2017-10-24T04:27:56.842Z,97.52
2017-10-24T04:30:25.286Z,97.43
2017-10-24T04:32:54.494Z,97.31
2017-10-24T04:35:23.729Z,97.53
2017-10-24T04:37:52.178Z,97.45
2017-10-24T04:40:21.512Z,97.49
2017-10-24T04:42:49.962Z,97.62
2017-10-24T04:45:18.420Z,97.62
2017-10-24T04:47:46.954Z,97.57
2017-10-24T04:50:15.534Z,97.85
2017-10-24T04:52:43.988Z,97.99
2017-10-24T04:55:13.137Z,97.59
2017-10-24T04:57:41.583Z,97.19
2017-10-24T05:00:10.058Z,97.89
2017-10-24T05:02:38.502Z,97.65
2017-10-24T05:05:06.981Z,97.03
2017-10-24T05:07:35.426Z,96.91
2017-10-24T05:10:03.874Z,96.46
2017-10-24T05:12:33.108Z,96.75
2017-10-24T05:15:01.686Z,96.55
2017-10-24T05:17:30.157Z,96.34
2017-10-24T05:19:58.602Z,96.85
2017-10-24T05:22:27.064Z,96.15
2017-10-24T05:24:55.510Z,96.05
2017-10-24T05:27:23.985Z,95.78
2017-10-24T05:29:52.433Z,96.19
2017-10-24T05:32:21.673Z,96.01
2017-10-24T05:34:50.166Z,96.26
2017-10-24T05:37:18.646Z,96.24
2017-10-24T05:39:47.114Z,96.25
2017-10-24T05:42:15.557Z,96.11
2017-10-24T05:44:44.804Z,95.95
2017-10-24T05:47:13.240Z,96.26
2017-10-24T05:49:42.572Z,96.24
2017-10-24T05:52:11.010Z,95.94
2017-10-24T05:54:39.478Z,95.92
2017-10-24T05:57:08.039Z,96.22
2017-10-24T05:59:36.509Z,95.89
2017-10-24T06:02:06.746Z,95.55
2017-10-24T06:04:35.191Z,95.94
2017-10-24T06:07:04.430Z,96.08
2017-10-24T06:09:32.873Z,96.27
2017-10-24T06:12:02.237Z,96.41
2017-10-24T06:14:30.677Z,96.36
2017-10-24T06:16:59.142Z,96.09
2017-10-24T06:19:28.350Z,95.86
2017-10-24T06:21:56.854Z,95.98
2017-10-24T06:24:25.326Z,95.93
2017-10-24T06:26:53.814Z,95.92
2017-10-24T06:29:22.262Z,95.85
2017-10-24T06:31:51.522Z,96.33
2017-10-24T06:34:19.975Z,96.24
2017-10-24T06:36:48.457Z,95.82
2017-10-24T06:39:16.954Z,96.45
2017-10-24T06:41:45.397Z,96.10
2017-10-24T06:44:14.634Z,96.57
2017-10-24T06:46:43.072Z,96.37
2017-10-24T06:49:12.314Z,96.73
2017-10-24T06:51:40.790Z,96.25
2017-10-24T06:54:09.253Z,96.55
2017-10-24T06:56:37.750Z,96.29
2017-10-24T06:59:06.218Z,96.09
2017-10-24T07:01:34.662Z,96.47
2017-10-24T07:04:03.134Z,95.95
2017-10-24T07:06:31.581Z,96.05
2017-10-24T07:09:00.113Z,95.72
2017-10-24T07:11:29.343Z,96.04
2017-10-24T07:13:57.845Z,95.60
2017-10-24T07:16:26.296Z,96.12
2017-10-24T07:18:55.517Z,96.29
2017-10-24T07:21:23.984Z,96.15
2017-10-24T07:23:52.425Z,95.73
2017-10-24T07:26:20.935Z,95.99
2017-10-24T07:28:50.141Z,95.78
2017-10-24T07:31:18.656Z,96.43
2017-10-24T07:33:47.135Z,96.45
2017-10-24T07:36:15.618Z,95.87
2017-10-24T07:38:44.068Z,95.86
2017-10-24T07:41:12.566Z,96.13
2017-10-24T07:43:41.013Z,96.04
2017-10-24T07:46:10.364Z,96.20
2017-10-24T07:48:38.841Z,95.69
2017-10-24T07:51:07.321Z,95.82
2017-10-24T07:53:35.769Z,95.73
2017-10-24T07:56:05.014Z,95.79
2017-10-24T07:58:33.487Z,95.71
2017-10-24T08:01:01.930Z,95.88
2017-10-24T08:03:31.201Z,96.43
2017-10-24T08:05:59.754Z,96.49
2017-10-24T08:08:28.226Z,96.10
2017-10-24T08:10:56.683Z,95.46
2017-10-24T08:13:25.921Z,95.52
2017-10-24T08:15:54.366Z,95.85
2017-10-24T08:18:23.705Z,95.26
2017-10-24T08:20:52.153Z,95.10
2017-10-24T08:23:21.386Z,94.76
2017-10-24T08:25:49.866Z,94.63
2017-10-24T08:28:18.333Z,94.18
2017-10-24T08:30:46.780Z,94.28
2017-10-24T08:33:16.132Z,94.35
2017-10-24T08:35:44.574Z,93.85
2017-10-24T08:38:13.916Z,93.56
2017-10-24T08:40:42.393Z,93.06
2017-10-24T08:43:10.874Z,92.98
2017-10-24T08:45:39.360Z,92.92
2017-10-24T08:48:07.849Z,92.69
2017-10-24T08:50:36.313Z,92.63
2017-10-24T08:53:04.756Z,93.09
2017-10-24T08:55:34.002Z,92.31
2017-10-24T08:58:03.210Z,92.12
2017-10-24T09:00:31.678Z,91.53
2017-10-24T09:03:00.134Z,91.00
2017-10-24T09:05:29.390Z,91.11
2017-10-24T09:07:57.841Z,90.91
2017-10-24T09:10:53.675Z,90.71
2017-10-24T09:16:41.455Z,90.23
2017-10-24T09:22:22.632Z,90.72
2017-10-24T09:24:51.072Z,90.51
2017-10-24T09:27:20.324Z,89.91
2017-10-24T09:29:48.774Z,89.02
2017-10-24T09:32:17.223Z,88.55
2017-10-24T09:34:46.461Z,88.03
2017-10-24T09:37:14.887Z,88.21
2017-10-24T09:39:43.354Z,87.35
2017-10-24T09:42:11.792Z,87.73
2017-10-24T09:44:40.253Z,87.45
2017-10-24T09:47:09.470Z,87.01
2017-10-24T09:49:38.706Z,87.44
2017-10-24T09:52:07.149Z,87.35
2017-10-24T09:54:42.715Z,87.28
2017-10-24T09:57:11.170Z,86.92
2017-10-24T09:59:40.510Z,87.24
2017-10-24T10:02:08.960Z,87.54
2017-10-24T10:04:38.250Z,87.13
2017-10-24T10:07:12.174Z,86.54
2017-10-24T10:09:41.405Z,86.26
2017-10-24T10:12:10.606Z,86.04
2017-10-24T10:14:39.066Z,85.74
2017-10-24T10:17:07.517Z,85.08
2017-10-24T10:19:36.757Z,85.48
2017-10-24T10:22:06.020Z,85.38
2017-10-24T10:24:39.957Z,85.03
2017-10-24T10:27:08.461Z,85.04
2017-10-24T10:29:36.925Z,84.84
2017-10-24T10:32:05.503Z,83.71
2017-10-24T10:34:33.998Z,83.49
2017-10-24T10:37:02.441Z,83.49
2017-10-24T10:39:31.649Z,83.57
2017-10-24T10:42:00.986Z,83.12
2017-10-24T10:44:29.425Z,82.90
2017-10-24T10:46:58.765Z,82.70
2017-10-24T10:49:27.250Z,82.22
2017-10-24T10:51:55.716Z,82.04
2017-10-24T10:54:24.161Z,80.60
2017-10-24T10:56:52.630Z,80.64
2017-10-24T10:59:21.073Z,80.46
2017-10-24T11:01:49.541Z,79.74
2017-10-24T11:04:18.046Z,80.44
2017-10-24T11:06:46.523Z,79.99
2017-10-24T11:09:15.006Z,80.33
2017-10-24T11:11:43.454Z,80.21
2017-10-24T11:14:12.784Z,80.92
2017-10-24T11:16:41.378Z,80.76
2017-10-24T11:19:09.850Z,80.33
2017-10-24T11:21:38.301Z,80.97
2017-10-24T11:24:07.644Z,79.25
2017-10-24T11:26:36.098Z,80.41
2017-10-24T11:29:04.570Z,78.82
2017-10-24T11:31:33.782Z,79.13
2017-10-24T11:34:02.251Z,78.96
2017-10-24T11:36:31.462Z,78.89
2017-10-24T11:38:59.906Z,78.54
2017-10-24T11:41:28.375Z,78.56
2017-10-24T11:43:56.925Z,79.34
2017-10-24T11:46:25.391Z,78.53
2017-10-24T11:48:53.828Z,78.56
2017-10-24T11:51:22.310Z,78.47
2017-10-24T11:53:50.754Z,78.53
2017-10-24T11:56:19.242Z,78.69
2017-10-24T11:58:47.898Z,78.92
2017-10-24T12:01:17.158Z,79.00
2017-10-24T12:03:45.714Z,78.83
2017-10-24T12:06:14.157Z,79.80
2017-10-24T12:08:43.498Z,80.26
2017-10-24T12:11:11.986Z,80.02
2017-10-24T12:13:40.615Z,79.96
2017-10-24T12:16:09.833Z,79.60
2017-10-24T12:18:39.164Z,80.21
2017-10-24T12:21:07.643Z,80.02
2017-10-24T12:23:36.181Z,80.67
2017-10-24T12:26:04.650Z,80.19
2017-10-24T12:28:33.249Z,80.27
2017-10-24T12:31:02.533Z,80.47
2017-10-24T12:33:30.997Z,80.82
2017-10-24T12:35:59.471Z,81.04
2017-10-24T12:38:27.953Z,80.66
2017-10-24T12:40:56.393Z,80.84
2017-10-24T12:43:25.658Z,81.03
2017-10-24T12:49:04.670Z,79.97
2017-10-24T12:51:34.110Z,80.26
2017-10-24T12:54:02.889Z,80.71
2017-10-24T12:56:31.339Z,80.62
2017-10-24T12:58:59.809Z,80.32
2017-10-24T13:01:28.346Z,80.95
2017-10-24T13:03:56.805Z,81.04
2017-10-24T13:06:25.253Z,80.72
2017-10-24T13:08:53.836Z,80.91
2017-10-24T13:11:22.447Z,81.09
2017-10-24T13:13:50.915Z,80.48
2017-10-24T13:16:19.377Z,80.78
2017-10-24T13:18:48.585Z,81.00
2017-10-24T13:21:17.096Z,81.64
2017-10-24T13:23:45.781Z,81.54
2017-10-24T13:26:14.249Z,81.13
2017-10-24T13:28:42.680Z,81.32
2017-10-24T13:31:11.185Z,81.52
2017-10-24T13:33:40.412Z,81.48
2017-10-24T13:36:08.876Z,81.61
2017-10-24T13:38:38.226Z,81.60
2017-10-24T13:41:06.689Z,82.12
2017-10-24T13:43:35.165Z,81.64
2017-10-24T13:46:03.941Z,81.86
2017-10-24T13:48:32.433Z,82.18
2017-10-24T13:51:00.893Z,82.29
2017-10-24T13:53:30.101Z,82.18
2017-10-24T13:55:58.597Z,82.22
2017-10-24T13:58:27.077Z,82.27
2017-10-24T14:00:55.566Z,83.26
2017-10-24T14:03:24.039Z,83.35
2017-10-24T14:05:58.104Z,83.12
2017-10-24T14:08:32.414Z,84.07
2017-10-24T14:11:00.881Z,84.06
2017-10-24T14:13:30.018Z,84.25
2017-10-24T14:15:59.230Z,84.52
2017-10-24T14:18:28.462Z,84.29
2017-10-24T14:20:56.902Z,84.51
2017-10-24T14:23:26.242Z,84.99
2017-10-24T14:25:54.727Z,84.95
2017-10-24T14:28:23.311Z,85.21
2017-10-24T14:30:51.762Z,84.91
2017-10-24T14:33:20.233Z,85.23
2017-10-24T14:35:49.465Z,85.63
2017-10-24T14:38:18.054Z,85.93
2017-10-24T14:40:46.497Z,85.92
2017-10-24T14:43:15.739Z,86.12
2017-10-24T14:45:44.203Z,85.96
2017-10-24T14:48:12.633Z,86.39
2017-10-24T14:50:41.176Z,86.33
2017-10-24T14:53:09.662Z,86.37
2017-10-24T14:55:38.134Z,86.85
2017-10-24T14:58:06.627Z,87.34
2017-10-24T15:00:35.125Z,87.29
2017-10-24T15:03:03.591Z,87.63
2017-10-24T15:05:32.065Z,88.00
2017-10-24T15:08:00.550Z,88.12
2017-10-24T15:10:29.029Z,87.54
2017-10-24T15:12:57.474Z,87.96
2017-10-24T15:15:26.725Z,87.58
2017-10-24T15:17:55.165Z,87.95
2017-10-24T15:20:24.404Z,87.83
2017-10-24T15:22:52.982Z,88.18
2017-10-24T15:25:21.430Z,88.61
2017-10-24T15:27:50.670Z,88.37
2017-10-24T15:30:19.109Z,88.15
2017-10-24T15:32:48.336Z,88.23
2017-10-24T15:35:16.782Z,88.49
2017-10-24T15:37:46.017Z,88.43
2017-10-24T15:40:14.462Z,88.48
2017-10-24T15:42:43.707Z,88.69
2017-10-24T15:45:12.185Z,88.51
2017-10-24T15:47:40.645Z,88.75
2017-10-24T15:50:09.875Z,88.37
2017-10-24T15:52:38.337Z,88.20
2017-10-24T15:55:06.833Z,88.74
2017-10-24T15:57:35.316Z,88.68
2017-10-24T16:00:03.762Z,88.71
2017-10-24T16:02:32.989Z,89.09
2017-10-24T16:05:01.457Z,88.96
2017-10-24T16:07:29.966Z,89.51
2017-10-24T16:09:58.437Z,89.21
2017-10-24T16:12:26.893Z,88.85
2017-10-24T16:14:56.130Z,89.36
2017-10-24T16:17:24.577Z,89.83
2017-10-24T16:19:53.045Z,90.56
2017-10-24T16:22:22.266Z,91.17
2017-10-24T16:24:50.728Z,92.61
2017-10-24T16:27:19.938Z,93.37
2017-10-24T16:29:49.284Z,93.59
2017-10-24T16:32:17.758Z,94.36
2017-10-24T16:34:46.335Z,94.76
2017-10-24T16:37:14.823Z,95.23
2017-10-24T16:39:43.709Z,95.29
2017-10-24T16:42:12.191Z,95.27
2017-10-24T16:44:40.668Z,95.42
2017-10-24T16:47:09.118Z,95.92
2017-10-24T16:49:38.357Z,95.80
2017-10-24T16:52:06.801Z,95.46
2017-10-24T16:54:36.058Z,95.50
2017-10-24T16:57:04.497Z,95.89
2017-10-24T16:59:32.934Z,96.56
2017-10-24T17:02:01.392Z,95.94
2017-10-24T17:04:29.856Z,96.51
2017-10-24T17:06:58.330Z,96.71
2017-10-24T17:09:26.827Z,96.44
2017-10-24T17:11:55.297Z,96.61
2017-10-24T17:14:23.789Z,96.72
2017-10-24T17:16:52.258Z,96.52
2017-10-24T17:19:20.697Z,96.14
2017-10-24T17:21:49.157Z,96.13
2017-10-24T17:24:17.601Z,96.22
2017-10-24T17:26:46.070Z,96.35
2017-10-24T17:29:15.277Z,96.09
2017-10-24T17:31:43.784Z,96.18
2017-10-24T17:34:12.229Z,96.11
2017-10-24T17:36:41.542Z,96.37
2017-10-24T17:39:09.982Z,96.59
2017-10-24T17:41:38.424Z,96.49
2017-10-24T17:44:06.909Z,96.17
2017-10-24T17:46:35.348Z,95.91
2017-10-24T17:49:04.692Z,96.11
2017-10-24T17:51:33.179Z,95.94
2017-10-24T17:54:01.651Z,95.76
2017-10-24T17:56:30.140Z,95.91
2017-10-24T17:58:58.717Z,95.72
2017-10-24T18:01:27.162Z,95.59
2017-10-24T18:03:56.393Z,96.31
2017-10-24T18:06:24.843Z,95.89
2017-10-24T18:08:54.068Z,96.10
2017-10-24T18:11:22.662Z,95.58
2017-10-24T18:13:51.122Z,95.84
2017-10-24T18:16:20.335Z,95.71
2017-10-24T18:18:48.803Z,96.02
2017-10-24T18:21:18.014Z,96.27
2017-10-24T18:23:46.478Z,96.41
2017-10-24T18:26:15.818Z,96.93
2017-10-24T18:28:44.294Z,97.00
2017-10-24T18:31:12.762Z,97.08
2017-10-24T18:33:41.261Z,96.81
2017-10-24T18:36:09.726Z,96.73
2017-10-24T18:38:38.278Z,97.08
2017-10-24T18:41:08.083Z,97.14
2017-10-24T18:43:36.522Z,96.92
2017-10-24T18:46:04.985Z,96.93
2017-10-24T18:48:33.426Z,97.09
2017-10-24T18:51:01.902Z,97.14
2017-10-24T18:53:30.342Z,96.99
2017-10-24T18:55:58.830Z,96.85
2017-10-24T18:58:27.273Z,97.15
2017-10-24T19:00:56.506Z,97.26
2017-10-24T19:03:24.942Z,97.28
2017-10-24T19:05:54.422Z,97.32
2017-10-24T19:08:22.881Z,97.49
2017-10-24T19:10:51.341Z,97.40
2017-10-24T19:13:19.777Z,97.71
2017-10-24T19:15:48.256Z,97.71
2017-10-24T19:18:16.917Z,97.61
2017-10-24T19:20:45.361Z,97.70
2017-10-24T19:23:13.821Z,97.70
2017-10-24T19:25:43.071Z,97.74
2017-10-24T19:28:11.543Z,97.78
2017-10-24T19:30:39.994Z,97.79
2017-10-24T19:33:09.274Z,97.63
2017-10-24T19:35:37.725Z,97.66
2017-10-24T19:38:06.198Z,97.68
2017-10-24T19:40:34.680Z,97.52
2017-10-24T19:43:03.155Z,97.53
2017-10-24T19:45:31.596Z,97.75
2017-10-24T19:48:00.946Z,97.82
2017-10-24T19:50:29.391Z,97.76
2017-10-24T19:52:58.621Z,97.70
2017-10-24T19:55:27.057Z,97.64
2017-10-24T19:57:56.368Z,97.94
2017-10-24T20:00:24.934Z,97.75
2017-10-24T20:02:53.378Z,97.72
2017-10-24T20:05:21.858Z,97.99
2017-10-24T20:07:50.298Z,97.97
2017-10-24T20:10:19.534Z,97.89
2017-10-24T20:12:48.413Z,97.89
2017-10-24T20:15:16.906Z,97.72
2017-10-24T20:17:45.349Z,97.81
2017-10-24T20:20:14.581Z,97.93
2017-10-24T20:22:43.021Z,97.88
2017-10-24T20:25:12.249Z,97.81
2017-10-24T20:27:40.689Z,97.85
2017-10-24T20:30:09.157Z,97.97
2017-10-24T20:32:37.593Z,97.84
2017-10-24T20:35:06.099Z,97.76
2017-10-24T20:37:34.537Z,97.72
2017-10-24T20:40:03.779Z,97.71
2017-10-24T20:42:32.241Z,97.73
2017-10-24T20:45:00.750Z,97.76
2017-10-24T20:47:29.331Z,97.76
2017-10-24T20:49:57.768Z,97.68
2017-10-24T20:52:27.105Z,97.96
2017-10-24T20:54:55.545Z,98.20
2017-10-24T20:57:24.769Z,98.15
2017-10-24T20:59:53.214Z,98.19
2017-10-24T21:02:21.677Z,98.46
2017-10-24T21:04:50.117Z,98.63
2017-10-24T21:07:18.618Z,98.75
2017-10-24T21:09:47.099Z,98.80
2017-10-24T21:12:15.653Z,98.85
2017-10-24T21:14:44.853Z,99.02
2017-10-24T21:17:13.357Z,99.03
2017-10-24T21:19:41.806Z,98.80
2017-10-24T21:22:11.038Z,98.77
2017-10-24T21:24:39.528Z,98.69
2017-10-24T21:27:07.974Z,98.60
2017-10-24T21:29:37.306Z,98.29
2017-10-24T21:32:05.795Z,98.37
2017-10-24T21:34:34.370Z,98.45
2017-10-24T21:37:02.859Z,98.38
2017-10-24T21:39:31.316Z,98.46
2017-10-24T21:41:59.762Z,98.33
2017-10-24T21:44:28.233Z,98.33
2017-10-24T21:46:56.783Z,98.49
2017-10-24T21:49:25.253Z,98.56
2017-10-24T21:51:53.751Z,98.68
2017-10-24T21:54:22.215Z,98.57
2017-10-24T21:56:50.715Z,98.46
2017-10-24T21:59:19.300Z,98.52
2017-10-24T22:01:47.774Z,98.80
2017-10-24T22:04:16.234Z,98.72
2017-10-24T22:06:44.710Z,98.74
2017-10-24T22:09:13.920Z,98.70
2017-10-24T22:11:42.530Z,98.50
2017-10-24T22:14:10.977Z,98.40
2017-10-24T22:16:40.210Z,98.42
2017-10-24T22:19:08.649Z,98.31
2017-10-24T22:21:37.881Z,98.24
2017-10-24T22:24:06.326Z,98.17
2017-10-24T22:26:35.563Z,98.11
2017-10-24T22:29:04.018Z,98.15
2017-10-24T22:31:33.245Z,98.31
2017-10-24T22:34:01.730Z,98.33
2017-10-24T22:36:30.201Z,98.17
2017-10-24T22:38:58.703Z,98.19
2017-10-24T22:41:27.177Z,98.18
2017-10-24T22:43:55.617Z,98.20
2017-10-24T22:46:24.965Z,98.17
2017-10-24T22:48:53.446Z,98.29
2017-10-24T22:51:21.912Z,98.21
2017-10-24T22:53:50.410Z,98.25
2017-10-24T22:56:18.856Z,98.21
2017-10-24T22:58:48.195Z,98.21
2017-10-24T23:01:16.774Z,98.14
2017-10-24T23:03:45.237Z,98.20
2017-10-24T23:06:13.738Z,98.35
2017-10-24T23:08:42.219Z,98.44
2017-10-24T23:11:10.665Z,98.45
2017-10-24T23:13:39.993Z,98.49
2017-10-24T23:16:08.438Z,98.54
2017-10-24T23:18:37.785Z,98.78
2017-10-24T23:21:06.267Z,98.86
2017-10-24T23:23:34.725Z,98.96
2017-10-24T23:26:03.944Z,99.12
2017-10-24T23:28:32.421Z,99.09
2017-10-24T23:31:00.871Z,99.20
2017-10-24T23:33:30.105Z,99.21
2017-10-24T23:35:58.550Z,99.37
2017-10-24T23:38:27.871Z,99.57
2017-10-24T23:40:56.379Z,99.55
2017-10-24T23:43:24.841Z,99.67
2017-10-24T23:45:53.287Z,99.60
2017-10-24T23:48:21.823Z,99.72
2017-10-24T23:50:50.274Z,99.66
2017-10-24T23:53:19.485Z,99.64
2017-10-24T23:55:47.954Z,99.58
2017-10-24T23:58:17.157Z,99.59
